createdAt,value
2023-02-16T00:00:01.250Z,0.00
2023-02-16T00:01:01.461Z,0.00
2023-02-16T00:02:01.327Z,0.00
2023-02-16T00:03:01.204Z,0.00
2023-02-16T00:04:01.217Z,0.00
2023-02-16T00:05:01.164Z,0.00
2023-02-16T00:06:01.146Z,0.00
2023-02-16T00:07:01.144Z,0.00
2023-02-16T00:08:01.151Z,0.00
2023-02-16T00:09:01.121Z,0.00
2023-02-16T00:10:01.156Z,0.00
2023-02-16T00:11:01.545Z,0.00
2023-02-16T00:12:01.150Z,0.00
2023-02-16T00:13:01.110Z,0.00
2023-02-16T00:14:01.085Z,0.00
2023-02-16T00:15:01.119Z,0.00
2023-02-16T00:16:01.123Z,0.00
2023-02-16T00:17:11.771Z,0.00
2023-02-16T00:18:01.082Z,0.00
2023-02-16T00:19:01.027Z,0.00
2023-02-16T00:20:01.007Z,0.00
2023-02-16T00:21:01.194Z,0.00
2023-02-16T00:22:01.021Z,0.00
2023-02-16T00:23:00.990Z,0.00
2023-02-16T00:24:01.086Z,0.00
2023-02-16T00:25:00.966Z,0.00
2023-02-16T00:26:00.960Z,0.00
2023-02-16T00:27:00.992Z,0.00
2023-02-16T00:28:01.023Z,0.00
2023-02-16T00:29:00.922Z,0.00
2023-02-16T00:30:01.058Z,0.00
2023-02-16T00:31:01.031Z,0.00
2023-02-16T00:32:01.190Z,0.00
2023-02-16T00:33:00.937Z,0.00
2023-02-16T00:34:00.904Z,0.00
2023-02-16T00:35:00.863Z,0.00
2023-02-16T00:36:00.880Z,0.00
2023-02-16T00:37:00.927Z,0.00
2023-02-16T00:38:00.969Z,0.00
2023-02-16T00:39:00.841Z,0.00
2023-02-16T00:40:01.655Z,0.00
2023-02-16T00:41:01.029Z,0.00
2023-02-16T00:42:00.811Z,0.00
2023-02-16T00:43:00.841Z,0.00
2023-02-16T00:44:00.788Z,0.00
2023-02-16T00:45:00.777Z,0.00
2023-02-16T00:46:00.828Z,0.00
2023-02-16T00:47:00.802Z,0.00
2023-02-16T00:48:00.742Z,0.00
2023-02-16T00:49:00.766Z,0.00
2023-02-16T00:50:00.756Z,0.00
2023-02-16T00:51:00.788Z,0.00
2023-02-16T00:52:00.745Z,0.00
2023-02-16T00:53:00.682Z,0.00
2023-02-16T00:54:00.687Z,0.00
2023-02-16T00:55:00.699Z,0.00
2023-02-16T00:56:00.722Z,0.00
2023-02-16T00:57:00.675Z,0.00
2023-02-16T00:58:00.656Z,0.00
2023-02-16T00:59:00.629Z,0.00
2023-02-16T01:00:00.699Z,0.00
2023-02-16T01:01:00.679Z,0.00
2023-02-16T01:02:00.620Z,0.00
2023-02-16T01:03:00.593Z,0.00
2023-02-16T01:04:00.618Z,0.00
2023-02-16T01:05:00.577Z,0.00
2023-02-16T01:06:00.617Z,0.00
2023-02-16T01:07:00.553Z,0.00
2023-02-16T01:08:00.542Z,0.00
2023-02-16T01:09:00.531Z,0.00
2023-02-16T01:10:00.548Z,0.00
2023-02-16T01:11:00.510Z,0.00
2023-02-16T01:12:00.546Z,0.00
2023-02-16T01:13:00.502Z,0.00
2023-02-16T01:14:00.490Z,0.00
2023-02-16T01:15:00.478Z,0.00
2023-02-16T01:16:00.524Z,0.00
2023-02-16T01:17:00.512Z,0.00
2023-02-16T01:18:00.440Z,0.00
2023-02-16T01:19:00.439Z,0.00
2023-02-16T01:20:00.419Z,0.00
2023-02-16T01:21:00.498Z,0.00
2023-02-16T01:22:00.459Z,0.00
2023-02-16T01:23:00.414Z,0.00
2023-02-16T01:24:00.391Z,0.00
2023-02-16T01:25:00.372Z,0.00
2023-02-16T01:26:00.405Z,0.00
2023-02-16T01:27:00.404Z,0.00
2023-02-16T01:28:00.413Z,0.00
2023-02-16T01:29:00.354Z,0.00
2023-02-16T01:30:00.478Z,0.00
2023-02-16T01:31:00.499Z,0.00
2023-02-16T01:32:00.402Z,0.00
2023-02-16T01:33:00.301Z,0.00
2023-02-16T01:34:00.309Z,0.00
2023-02-16T01:35:00.280Z,0.00
2023-02-16T01:36:00.264Z,0.00
2023-02-16T01:37:00.283Z,0.00
2023-02-16T01:38:00.239Z,0.00
2023-02-16T01:39:00.240Z,0.00
2023-02-16T01:40:00.274Z,0.00
2023-02-16T01:41:00.250Z,0.00
2023-02-16T01:42:00.296Z,0.00
2023-02-16T01:43:00.228Z,0.00
2023-02-16T01:44:00.240Z,0.00
2023-02-16T01:45:00.216Z,0.00
2023-02-16T01:46:00.229Z,0.00
2023-02-16T01:47:00.206Z,0.00
2023-02-16T01:48:00.150Z,0.00
2023-02-16T01:49:00.133Z,0.00
2023-02-16T01:50:03.074Z,0.00
2023-02-16T01:51:00.132Z,0.00
2023-02-16T01:52:00.121Z,0.00
2023-02-16T01:53:00.133Z,0.00
2023-02-16T01:54:00.129Z,0.00
2023-02-16T01:55:00.096Z,0.00
2023-02-16T01:56:00.079Z,0.00
2023-02-16T01:57:00.065Z,0.00
2023-02-16T01:58:00.084Z,0.00
2023-02-16T01:59:00.071Z,0.00
2023-02-16T02:00:00.079Z,0.00
2023-02-16T02:01:00.050Z,0.00
2023-02-16T02:02:00.162Z,0.00
2023-02-16T02:03:00.118Z,0.00
2023-02-16T02:03:59.982Z,0.00
2023-02-16T02:04:59.987Z,0.00
2023-02-16T02:06:00.000Z,0.00
2023-02-16T02:06:59.983Z,0.00
2023-02-16T02:07:59.984Z,0.00
2023-02-16T02:09:00.004Z,0.00
2023-02-16T02:09:59.972Z,0.00
2023-02-16T02:10:59.915Z,0.00
2023-02-16T02:11:59.953Z,0.00
2023-02-16T02:12:59.923Z,0.00
2023-02-16T02:13:59.977Z,0.00
2023-02-16T02:14:59.874Z,0.00
2023-02-16T02:16:00.185Z,0.00
2023-02-16T02:16:59.872Z,0.00
2023-02-16T02:17:59.876Z,0.00
2023-02-16T02:18:59.856Z,0.00
2023-02-16T02:19:59.861Z,0.00
2023-02-16T02:20:59.863Z,0.00
2023-02-16T02:21:59.852Z,0.00
2023-02-16T02:22:59.800Z,0.00
2023-02-16T02:23:59.819Z,0.00
2023-02-16T02:24:59.790Z,0.00
2023-02-16T02:25:59.813Z,0.00
2023-02-16T02:26:59.775Z,0.00
2023-02-16T02:27:59.749Z,0.00
2023-02-16T02:28:59.760Z,0.00
2023-02-16T02:29:59.861Z,0.00
2023-02-16T02:30:59.898Z,0.00
2023-02-16T02:31:59.831Z,0.00
2023-02-16T02:32:59.727Z,0.00
2023-02-16T02:33:59.688Z,0.00
2023-02-16T02:34:59.696Z,0.00
2023-02-16T02:35:59.685Z,0.00
2023-02-16T02:36:59.692Z,0.00
2023-02-16T02:37:59.658Z,0.00
2023-02-16T02:38:59.655Z,0.00
2023-02-16T02:39:59.675Z,0.00
2023-02-16T02:40:59.628Z,0.00
2023-02-16T02:41:59.614Z,0.00
2023-02-16T02:42:59.600Z,0.00
2023-02-16T02:43:59.659Z,0.00
2023-02-16T02:44:59.609Z,0.00
2023-02-16T02:45:59.624Z,0.00
2023-02-16T02:46:59.573Z,0.00
2023-02-16T02:47:59.622Z,0.00
2023-02-16T02:48:59.551Z,0.00
2023-02-16T02:49:59.541Z,0.00
2023-02-16T02:50:59.528Z,0.00
2023-02-16T02:51:59.535Z,0.00
2023-02-16T02:52:59.506Z,0.00
2023-02-16T02:53:59.545Z,0.00
2023-02-16T02:54:59.488Z,0.00
2023-02-16T02:55:59.479Z,0.00
2023-02-16T02:56:59.498Z,0.00
2023-02-16T02:57:59.503Z,0.00
2023-02-16T02:58:59.478Z,0.00
2023-02-16T02:59:59.453Z,0.00
2023-02-16T03:00:59.498Z,0.00
2023-02-16T03:01:59.456Z,0.00
2023-02-16T03:02:59.414Z,0.00
2023-02-16T03:03:59.436Z,0.00
2023-02-16T03:04:59.463Z,0.00
2023-02-16T03:05:59.385Z,0.00
2023-02-16T03:06:59.410Z,0.00
2023-02-16T03:07:59.357Z,0.00
2023-02-16T03:08:59.368Z,0.00
2023-02-16T03:09:59.350Z,0.00
2023-02-16T03:10:59.352Z,0.00
2023-02-16T03:11:59.349Z,0.00
2023-02-16T03:12:59.314Z,0.00
2023-02-16T03:13:59.328Z,0.00
2023-02-16T03:14:59.289Z,0.00
2023-02-16T03:15:59.374Z,0.00
2023-02-16T03:16:59.705Z,0.00
2023-02-16T03:17:59.265Z,0.00
2023-02-16T03:18:59.268Z,0.00
2023-02-16T03:19:59.268Z,0.00
2023-02-16T03:20:59.258Z,0.00
2023-02-16T03:21:59.243Z,0.00
2023-02-16T03:22:59.256Z,0.00
2023-02-16T03:23:59.265Z,0.00
2023-02-16T03:24:59.184Z,0.00
2023-02-16T03:25:59.170Z,0.00
2023-02-16T03:26:59.168Z,0.00
2023-02-16T03:27:59.200Z,0.00
2023-02-16T03:28:59.149Z,0.00
2023-02-16T03:29:59.198Z,0.00
2023-02-16T03:30:59.251Z,0.00
2023-02-16T03:31:59.211Z,0.00
2023-02-16T03:32:59.122Z,0.00
2023-02-16T03:33:59.134Z,0.00
2023-02-16T03:34:59.101Z,0.00
2023-02-16T03:35:59.177Z,0.00
2023-02-16T03:36:59.074Z,0.00
2023-02-16T03:37:59.058Z,0.00
2023-02-16T03:38:59.063Z,0.00
2023-02-16T03:39:59.036Z,0.00
2023-02-16T03:40:59.062Z,0.00
2023-02-16T03:41:59.029Z,0.00
2023-02-16T03:42:59.209Z,0.00
2023-02-16T03:43:58.994Z,0.00
2023-02-16T03:44:58.989Z,0.00
2023-02-16T03:45:59.012Z,0.00
2023-02-16T03:46:59.038Z,0.00
2023-02-16T03:47:59.001Z,0.00
2023-02-16T03:48:59.003Z,0.00
2023-02-16T03:49:58.956Z,0.00
2023-02-16T03:50:58.955Z,0.00
2023-02-16T03:51:58.941Z,0.00
2023-02-16T03:52:58.916Z,0.00
2023-02-16T03:53:58.955Z,0.00
2023-02-16T03:54:58.942Z,0.00
2023-02-16T03:55:58.897Z,0.00
2023-02-16T03:56:58.916Z,0.00
2023-02-16T03:57:58.862Z,0.00
2023-02-16T03:58:58.876Z,0.00
2023-02-16T03:59:59.380Z,0.00
2023-02-16T04:00:58.839Z,0.00
2023-02-16T04:01:58.867Z,0.00
2023-02-16T04:02:58.909Z,0.00
2023-02-16T04:03:58.918Z,0.00
2023-02-16T04:04:58.877Z,0.00
2023-02-16T04:05:58.788Z,0.00
2023-02-16T04:06:58.854Z,0.00
2023-02-16T04:07:58.813Z,0.00
2023-02-16T04:08:58.787Z,0.00
2023-02-16T04:09:58.767Z,0.00
2023-02-16T04:10:58.747Z,0.00
2023-02-16T04:11:58.741Z,0.00
2023-02-16T04:12:58.759Z,0.00
2023-02-16T04:13:58.709Z,0.00
2023-02-16T04:14:58.703Z,0.00
2023-02-16T04:15:58.722Z,0.00
2023-02-16T04:16:58.695Z,0.00
2023-02-16T04:17:58.711Z,0.00
2023-02-16T04:18:58.655Z,0.00
2023-02-16T04:19:58.699Z,0.00
2023-02-16T04:21:06.300Z,0.00
2023-02-16T04:21:58.639Z,0.00
2023-02-16T04:22:58.635Z,0.00
2023-02-16T04:23:58.637Z,0.00
2023-02-16T04:24:58.608Z,0.00
2023-02-16T04:25:58.620Z,0.00
2023-02-16T04:26:58.584Z,0.00
2023-02-16T04:27:58.610Z,0.00
2023-02-16T04:28:58.562Z,0.00
2023-02-16T04:29:58.593Z,0.00
2023-02-16T04:30:58.626Z,0.00
2023-02-16T04:31:58.704Z,0.00
2023-02-16T04:32:58.520Z,0.00
2023-02-16T04:33:58.543Z,0.00
2023-02-16T04:34:58.521Z,0.00
2023-02-16T04:35:58.526Z,0.00
2023-02-16T04:36:58.478Z,0.00
2023-02-16T04:37:58.483Z,0.00
2023-02-16T04:38:58.465Z,0.00
2023-02-16T04:39:58.466Z,0.00
2023-02-16T04:40:58.445Z,0.00
2023-02-16T04:41:58.465Z,0.00
2023-02-16T04:42:58.455Z,0.00
2023-02-16T04:43:58.431Z,0.00
2023-02-16T04:44:58.405Z,0.00
2023-02-16T04:45:58.437Z,0.00
2023-02-16T04:46:58.391Z,0.00
2023-02-16T04:47:58.382Z,0.00
2023-02-16T04:48:58.388Z,0.00
2023-02-16T04:49:58.369Z,0.00
2023-02-16T04:50:58.360Z,0.00
2023-02-16T04:51:58.381Z,0.00
2023-02-16T04:52:58.314Z,0.00
2023-02-16T04:53:58.372Z,0.00
2023-02-16T04:54:58.314Z,0.00
2023-02-16T04:55:58.313Z,0.00
2023-02-16T04:56:58.285Z,0.00
2023-02-16T04:57:58.267Z,0.00
2023-02-16T04:58:58.275Z,0.00
2023-02-16T04:59:58.302Z,0.00
2023-02-16T05:00:58.258Z,0.00
2023-02-16T05:01:58.261Z,0.00
2023-02-16T05:02:58.235Z,0.00
2023-02-16T05:03:58.246Z,0.00
2023-02-16T05:04:58.214Z,0.00
2023-02-16T05:05:58.188Z,0.00
2023-02-16T05:06:58.181Z,0.00
2023-02-16T05:07:58.224Z,0.00
2023-02-16T05:08:58.192Z,0.00
2023-02-16T05:09:58.153Z,0.00
2023-02-16T05:10:58.161Z,0.00
2023-02-16T05:11:58.193Z,0.00
2023-02-16T05:12:58.134Z,0.00
2023-02-16T05:13:58.110Z,0.00
2023-02-16T05:14:58.109Z,0.00
2023-02-16T05:15:58.251Z,0.00
2023-02-16T05:16:58.114Z,0.00
2023-02-16T05:17:58.125Z,0.00
2023-02-16T05:18:58.876Z,0.00
2023-02-16T05:19:58.057Z,0.00
2023-02-16T05:20:58.036Z,0.00
2023-02-16T05:21:58.033Z,0.00
2023-02-16T05:22:58.052Z,0.00
2023-02-16T05:23:58.011Z,0.00
2023-02-16T05:24:58.001Z,0.00
2023-02-16T05:25:57.993Z,0.00
2023-02-16T05:26:57.985Z,0.00
2023-02-16T05:27:58.056Z,0.00
2023-02-16T05:28:57.961Z,0.00
2023-02-16T05:29:58.108Z,0.00
2023-02-16T05:30:58.017Z,0.00
2023-02-16T05:31:57.999Z,0.00
2023-02-16T05:32:58.008Z,0.00
2023-02-16T05:33:57.990Z,0.00
2023-02-16T05:34:58.207Z,0.00
2023-02-16T05:35:57.931Z,0.00
2023-02-16T05:36:57.885Z,0.00
2023-02-16T05:37:58.013Z,0.00
2023-02-16T05:38:57.872Z,0.00
2023-02-16T05:39:57.857Z,0.00
2023-02-16T05:40:57.870Z,0.00
2023-02-16T05:41:57.878Z,0.00
2023-02-16T05:42:57.856Z,0.00
2023-02-16T05:43:57.897Z,0.00
2023-02-16T05:44:57.812Z,0.00
2023-02-16T05:45:57.922Z,0.00
2023-02-16T05:46:57.823Z,0.00
2023-02-16T05:47:57.848Z,0.00
2023-02-16T05:48:57.781Z,0.00
2023-02-16T05:49:57.833Z,0.00
2023-02-16T05:50:57.769Z,0.00
2023-02-16T05:51:57.793Z,0.00
2023-02-16T05:52:57.755Z,0.00
2023-02-16T05:53:57.817Z,0.00
2023-02-16T05:54:57.724Z,0.00
2023-02-16T05:55:57.735Z,0.00
2023-02-16T05:56:57.765Z,0.00
2023-02-16T05:57:57.685Z,0.00
2023-02-16T05:58:57.687Z,0.00
2023-02-16T05:59:57.743Z,0.00
2023-02-16T06:00:57.668Z,0.00
2023-02-16T06:01:57.666Z,0.00
2023-02-16T06:02:57.817Z,0.00
2023-02-16T06:03:57.832Z,0.00
2023-02-16T06:04:57.636Z,0.00
2023-02-16T06:05:57.611Z,0.00
2023-02-16T06:06:57.598Z,0.00
2023-02-16T06:07:57.598Z,0.00
2023-02-16T06:08:57.584Z,0.00
2023-02-16T06:09:57.607Z,0.00
2023-02-16T06:10:57.606Z,0.00
2023-02-16T06:11:57.548Z,0.00
2023-02-16T06:12:57.532Z,0.00
2023-02-16T06:13:57.536Z,0.00
2023-02-16T06:14:57.537Z,0.00
2023-02-16T06:15:57.660Z,0.00
2023-02-16T06:16:57.523Z,0.00
2023-02-16T06:17:57.489Z,0.00
2023-02-16T06:18:57.480Z,0.00
2023-02-16T06:19:57.484Z,0.00
2023-02-16T06:20:57.480Z,0.00
2023-02-16T06:21:57.480Z,0.00
2023-02-16T06:22:57.448Z,0.00
2023-02-16T06:23:57.428Z,0.00
2023-02-16T06:24:57.440Z,0.00
2023-02-16T06:25:57.734Z,0.00
2023-02-16T06:26:57.402Z,0.00
2023-02-16T06:27:57.398Z,0.00
2023-02-16T06:28:57.402Z,0.00
2023-02-16T06:29:57.414Z,0.00
2023-02-16T06:30:57.427Z,0.00
2023-02-16T06:31:57.574Z,0.00
2023-02-16T06:32:57.344Z,0.00
2023-02-16T06:33:57.371Z,0.00
2023-02-16T06:34:57.351Z,0.00
2023-02-16T06:35:57.370Z,0.00
2023-02-16T06:36:57.338Z,0.00
2023-02-16T06:37:57.298Z,0.00
2023-02-16T06:38:57.338Z,0.00
2023-02-16T06:39:57.295Z,0.00
2023-02-16T06:40:57.264Z,0.00
2023-02-16T06:41:57.277Z,0.00
2023-02-16T06:42:57.354Z,0.00
2023-02-16T06:43:57.235Z,0.00
2023-02-16T06:44:57.229Z,0.00
2023-02-16T06:45:57.216Z,0.00
2023-02-16T06:46:57.421Z,0.00
2023-02-16T06:47:57.238Z,0.00
2023-02-16T06:48:57.202Z,0.00
2023-02-16T06:49:57.184Z,0.00
2023-02-16T06:50:57.199Z,0.00
2023-02-16T06:51:57.145Z,0.00
2023-02-16T06:52:57.195Z,0.00
2023-02-16T06:53:57.163Z,0.00
2023-02-16T06:54:57.170Z,0.00
2023-02-16T06:55:57.147Z,0.00
2023-02-16T06:56:57.166Z,0.00
2023-02-16T06:57:57.098Z,0.00
2023-02-16T06:58:57.139Z,0.00
2023-02-16T06:59:57.103Z,0.00
2023-02-16T07:00:57.087Z,0.00
2023-02-16T07:01:57.144Z,0.00
2023-02-16T07:02:57.110Z,0.00
2023-02-16T07:03:57.088Z,0.00
2023-02-16T07:04:57.085Z,0.00
2023-02-16T07:05:57.039Z,0.00
2023-02-16T07:06:57.108Z,0.00
2023-02-16T07:07:56.994Z,0.00
2023-02-16T07:08:57.019Z,0.00
2023-02-16T07:09:57.025Z,0.00
2023-02-16T07:10:57.001Z,0.00
2023-02-16T07:11:56.975Z,0.00
2023-02-16T07:12:56.978Z,0.00
2023-02-16T07:13:56.975Z,0.00
2023-02-16T07:14:56.962Z,0.00
2023-02-16T07:15:57.053Z,0.00
2023-02-16T07:16:56.904Z,0.00
2023-02-16T07:17:57.689Z,0.00
2023-02-16T07:18:56.909Z,0.00
2023-02-16T07:19:59.552Z,0.00
2023-02-16T07:20:56.854Z,0.00
2023-02-16T07:21:56.883Z,0.00
2023-02-16T07:22:56.885Z,0.00
2023-02-16T07:23:56.846Z,0.00
2023-02-16T07:24:56.852Z,0.00
2023-02-16T07:25:56.810Z,0.00
2023-02-16T07:26:56.828Z,0.00
2023-02-16T07:27:56.825Z,0.00
2023-02-16T07:28:56.774Z,0.00
2023-02-16T07:29:56.887Z,0.00
2023-02-16T07:30:56.906Z,0.00
2023-02-16T07:31:56.912Z,0.00
2023-02-16T07:32:56.786Z,0.00
2023-02-16T07:33:56.746Z,0.00
2023-02-16T07:34:56.757Z,0.00
2023-02-16T07:35:56.729Z,0.00
2023-02-16T07:36:56.715Z,0.00
2023-02-16T07:37:56.684Z,0.00
2023-02-16T07:38:56.747Z,0.00
2023-02-16T07:39:56.788Z,0.00
2023-02-16T07:40:56.683Z,0.00
2023-02-16T07:41:56.648Z,0.00
2023-02-16T07:42:56.638Z,0.00
2023-02-16T07:43:56.669Z,0.00
2023-02-16T07:44:56.670Z,0.00
2023-02-16T07:45:56.753Z,0.00
2023-02-16T07:47:01.246Z,0.00
2023-02-16T07:47:56.587Z,0.00
2023-02-16T07:48:56.576Z,0.00
2023-02-16T07:49:56.574Z,0.00
2023-02-16T07:50:56.638Z,0.00
2023-02-16T07:51:56.562Z,0.00
2023-02-16T07:52:56.559Z,0.00
2023-02-16T07:53:56.525Z,0.00
2023-02-16T07:54:56.505Z,0.00
2023-02-16T07:55:56.520Z,0.00
2023-02-16T07:56:56.702Z,0.00
2023-02-16T07:57:56.491Z,0.00
2023-02-16T07:58:56.504Z,0.00
2023-02-16T07:59:56.457Z,0.00
2023-02-16T08:00:56.436Z,0.00
2023-02-16T08:01:56.600Z,0.00
2023-02-16T08:02:56.704Z,0.00
2023-02-16T08:03:56.473Z,0.00
2023-02-16T08:04:56.402Z,0.00
2023-02-16T08:05:56.427Z,0.00
2023-02-16T08:06:56.412Z,0.00
2023-02-16T08:07:56.422Z,0.00
2023-02-16T08:08:56.365Z,0.00
2023-02-16T08:09:56.377Z,0.00
2023-02-16T08:10:56.386Z,0.00
2023-02-16T08:11:56.420Z,0.00
2023-02-16T08:12:56.397Z,0.00
2023-02-16T08:13:56.341Z,0.00
2023-02-16T08:14:56.320Z,0.00
2023-02-16T08:15:56.306Z,0.00
2023-02-16T08:16:56.856Z,0.00
2023-02-16T08:17:56.275Z,0.00
2023-02-16T08:18:56.301Z,0.00
2023-02-16T08:19:56.264Z,0.00
2023-02-16T08:21:04.100Z,0.00
2023-02-16T08:21:57.282Z,0.00
2023-02-16T08:22:56.223Z,0.10
2023-02-16T08:23:56.334Z,0.10
2023-02-16T08:24:56.206Z,0.10
2023-02-16T08:25:56.247Z,0.10
2023-02-16T08:26:56.256Z,0.10
2023-02-16T08:27:56.219Z,0.10
2023-02-16T08:28:56.156Z,0.10
2023-02-16T08:29:56.197Z,0.10
2023-02-16T08:30:56.294Z,0.10
2023-02-16T08:31:56.238Z,0.10
2023-02-16T08:32:56.172Z,0.10
2023-02-16T08:33:56.115Z,0.10
2023-02-16T08:34:56.106Z,0.10
2023-02-16T08:35:56.086Z,0.10
2023-02-16T08:36:56.109Z,0.10
2023-02-16T08:37:56.102Z,0.10
2023-02-16T08:38:56.094Z,0.10
2023-02-16T08:39:56.096Z,0.10
2023-02-16T08:40:56.071Z,0.10
2023-02-16T08:41:56.094Z,0.10
2023-02-16T08:42:56.006Z,0.20
2023-02-16T08:43:56.001Z,0.20
2023-02-16T08:44:56.056Z,0.10
2023-02-16T08:45:56.076Z,0.20
2023-02-16T08:46:55.997Z,0.30
2023-02-16T08:47:55.992Z,0.30
2023-02-16T08:48:55.999Z,0.30
2023-02-16T08:49:55.950Z,0.40
2023-02-16T08:50:55.942Z,0.30
2023-02-16T08:51:55.952Z,0.40
2023-02-16T08:52:55.949Z,0.40
2023-02-16T08:53:55.891Z,0.50
2023-02-16T08:54:55.877Z,0.40
2023-02-16T08:55:55.961Z,0.40
2023-02-16T08:56:56.730Z,0.50
2023-02-16T08:57:55.851Z,0.50
2023-02-16T08:58:55.859Z,0.60
2023-02-16T08:59:55.826Z,0.70
2023-02-16T09:00:55.813Z,0.60
2023-02-16T09:01:55.804Z,0.70
2023-02-16T09:02:55.786Z,0.60
2023-02-16T09:03:55.854Z,0.60
2023-02-16T09:04:57.727Z,0.50
2023-02-16T09:05:55.784Z,0.60
2023-02-16T09:06:55.787Z,0.60
2023-02-16T09:07:55.780Z,0.70
2023-02-16T09:08:55.765Z,0.80
2023-02-16T09:09:55.841Z,1.00
2023-02-16T09:10:55.733Z,1.20
2023-02-16T09:11:55.725Z,1.00
2023-02-16T09:12:55.689Z,1.00
2023-02-16T09:13:56.215Z,0.90
2023-02-16T09:14:55.663Z,0.80
2023-02-16T09:15:55.745Z,0.80
2023-02-16T09:16:55.678Z,0.70
2023-02-16T09:17:55.644Z,0.70
2023-02-16T09:18:55.629Z,0.70
2023-02-16T09:19:55.642Z,0.70
2023-02-16T09:20:55.614Z,0.90
2023-02-16T09:23:12.812Z,1.30
2023-02-16T09:24:12.827Z,1.30
2023-02-16T09:25:13.480Z,1.60
2023-02-16T09:26:12.787Z,1.60
2023-02-16T09:27:13.551Z,1.80
2023-02-16T09:28:12.764Z,1.60
2023-02-16T09:29:12.926Z,1.70
2023-02-16T09:30:12.773Z,1.70
2023-02-16T09:31:12.944Z,1.60
2023-02-16T09:32:15.476Z,1.70
2023-02-16T09:33:12.713Z,1.60
2023-02-16T09:34:12.694Z,1.80
2023-02-16T09:35:12.716Z,1.70
2023-02-16T09:36:13.025Z,1.80
2023-02-16T09:37:12.655Z,1.80
2023-02-16T09:38:12.722Z,2.10
2023-02-16T09:39:12.656Z,2.20
2023-02-16T09:40:12.624Z,2.30
2023-02-16T09:41:12.654Z,2.70
2023-02-16T09:42:12.635Z,2.40
2023-02-16T09:43:12.651Z,3.20
2023-02-16T09:44:12.673Z,3.10
2023-02-16T09:45:12.638Z,3.30
2023-02-16T09:46:12.691Z,3.10
2023-02-16T09:47:12.556Z,3.50
2023-02-16T09:48:12.591Z,3.40
2023-02-16T09:49:12.534Z,3.10
2023-02-16T09:50:12.517Z,3.30
2023-02-16T09:51:12.596Z,3.40
2023-02-16T09:52:12.534Z,3.70
2023-02-16T09:53:12.545Z,3.90
2023-02-16T09:54:12.515Z,3.90
2023-02-16T09:55:12.524Z,4.20
2023-02-16T09:56:12.567Z,4.40
2023-02-16T09:57:12.505Z,4.10
2023-02-16T09:58:12.451Z,4.40
2023-02-16T09:59:12.500Z,4.10
2023-02-16T10:00:12.419Z,4.30
2023-02-16T10:01:12.428Z,4.30
2023-02-16T10:02:12.419Z,4.50
2023-02-16T10:03:12.448Z,4.50
2023-02-16T10:04:12.397Z,4.50
2023-02-16T10:05:12.449Z,4.90
2023-02-16T10:06:12.366Z,4.90
2023-02-16T10:07:12.352Z,4.70
2023-02-16T10:08:12.416Z,4.90
2023-02-16T10:09:12.350Z,4.70
2023-02-16T10:10:12.327Z,4.90
2023-02-16T10:11:12.322Z,5.10
2023-02-16T10:12:12.325Z,5.10
2023-02-16T10:13:12.315Z,4.90
2023-02-16T10:14:12.422Z,4.40
2023-02-16T10:15:12.328Z,4.00
2023-02-16T10:16:12.335Z,4.00
2023-02-16T10:17:12.257Z,2.60
2023-02-16T10:18:12.257Z,2.60
2023-02-16T10:19:12.275Z,1.60
2023-02-16T10:20:12.518Z,1.20
2023-02-16T10:21:12.256Z,1.30
2023-02-16T10:22:12.233Z,1.20
2023-02-16T10:23:12.205Z,1.50
2023-02-16T10:24:12.261Z,1.00
2023-02-16T10:25:12.183Z,0.60
2023-02-16T10:26:12.400Z,0.50
2023-02-16T10:27:12.154Z,0.60
2023-02-16T10:28:12.185Z,0.60
2023-02-16T10:29:13.002Z,0.70
2023-02-16T10:30:12.127Z,0.60
2023-02-16T10:31:12.249Z,0.60
2023-02-16T10:32:12.234Z,0.70
2023-02-16T10:33:12.093Z,0.60
2023-02-16T10:34:12.065Z,0.70
2023-02-16T10:35:12.101Z,0.70
2023-02-16T10:36:12.152Z,1.00
2023-02-16T10:37:12.123Z,1.20
2023-02-16T10:38:12.036Z,1.40
2023-02-16T10:39:12.022Z,1.30
2023-02-16T10:40:12.043Z,1.70
2023-02-16T10:41:12.034Z,1.80
2023-02-16T10:42:12.512Z,1.60
2023-02-16T10:43:11.976Z,1.80
2023-02-16T10:44:11.981Z,1.90
2023-02-16T10:45:12.014Z,2.00
2023-02-16T10:46:12.096Z,2.00
2023-02-16T10:47:12.083Z,2.40
2023-02-16T10:48:11.931Z,2.50
2023-02-16T10:49:13.004Z,2.40
2023-02-16T10:50:11.946Z,2.60
2023-02-16T10:51:11.943Z,2.70
2023-02-16T10:52:11.932Z,2.80
2023-02-16T10:53:11.926Z,3.10
2023-02-16T10:54:11.905Z,3.10
2023-02-16T10:55:11.916Z,3.50
2023-02-16T10:56:11.902Z,3.10
2023-02-16T10:57:11.910Z,3.20
2023-02-16T10:58:11.830Z,3.10
2023-02-16T10:59:11.922Z,3.20
2023-02-16T11:00:11.892Z,2.90
2023-02-16T11:01:11.854Z,3.60
2023-02-16T11:02:11.819Z,3.40
2023-02-16T11:03:11.807Z,3.90
2023-02-16T11:04:11.807Z,3.90
2023-02-16T11:05:11.894Z,4.00
2023-02-16T11:06:11.752Z,3.60
2023-02-16T11:07:11.787Z,4.00
2023-02-16T11:08:11.853Z,4.20
2023-02-16T11:09:11.751Z,4.30
2023-02-16T11:10:11.755Z,4.10
2023-02-16T11:11:11.692Z,4.30
2023-02-16T11:12:11.704Z,3.10
2023-02-16T11:13:11.680Z,2.30
2023-02-16T11:14:11.665Z,1.70
2023-02-16T11:15:11.699Z,1.30
2023-02-16T11:16:11.816Z,1.10
2023-02-16T11:17:11.659Z,1.20
2023-02-16T11:18:12.073Z,1.00
2023-02-16T11:19:11.635Z,1.10
2023-02-16T11:20:11.600Z,1.00
2023-02-16T11:21:11.600Z,0.80
2023-02-16T11:22:11.580Z,1.00
2023-02-16T11:23:11.602Z,1.30
2023-02-16T11:24:11.634Z,1.50
2023-02-16T11:25:11.573Z,1.50
2023-02-16T11:26:11.544Z,1.80
2023-02-16T11:27:11.558Z,2.10
2023-02-16T11:28:11.570Z,2.00
2023-02-16T11:29:11.777Z,2.10
2023-02-16T11:30:11.667Z,2.10
2023-02-16T11:31:11.623Z,2.10
2023-02-16T11:32:11.572Z,2.30
2023-02-16T11:33:11.496Z,2.20
2023-02-16T11:34:12.586Z,2.60
2023-02-16T11:35:11.515Z,2.60
2023-02-16T11:36:11.518Z,2.70
2023-02-16T11:37:11.512Z,2.60
2023-02-16T11:38:11.423Z,2.40
2023-02-16T11:39:11.573Z,2.90
2023-02-16T11:40:11.508Z,2.90
2023-02-16T11:41:11.379Z,3.00
2023-02-16T11:42:11.379Z,3.50
2023-02-16T11:43:12.086Z,3.30
2023-02-16T11:44:11.371Z,3.40
2023-02-16T11:45:11.394Z,3.60
2023-02-16T11:46:11.360Z,3.80
2023-02-16T11:47:11.330Z,4.10
2023-02-16T11:48:12.132Z,3.90
2023-02-16T11:49:11.360Z,4.40
2023-02-16T11:50:11.379Z,4.40
2023-02-16T11:51:11.372Z,4.60
2023-02-16T11:52:11.341Z,4.60
2023-02-16T11:53:11.277Z,5.00
2023-02-16T11:54:12.111Z,5.00
2023-02-16T11:55:11.318Z,5.10
2023-02-16T11:56:11.258Z,4.60
2023-02-16T11:57:11.232Z,5.10
2023-02-16T11:58:11.245Z,4.80
2023-02-16T11:59:11.221Z,4.50
2023-02-16T12:00:12.062Z,4.60
2023-02-16T12:01:11.175Z,4.30
2023-02-16T12:02:11.212Z,4.30
2023-02-16T12:03:11.208Z,4.20
2023-02-16T12:04:11.302Z,4.30
2023-02-16T12:05:11.247Z,4.00
2023-02-16T12:06:11.194Z,4.20
2023-02-16T12:07:11.132Z,4.30
2023-02-16T12:08:11.117Z,4.00
2023-02-16T12:09:11.188Z,3.70
2023-02-16T12:10:11.099Z,4.30
2023-02-16T12:11:11.119Z,3.90
2023-02-16T12:12:12.077Z,3.60
2023-02-16T12:13:12.128Z,3.90
2023-02-16T12:14:11.064Z,4.10
2023-02-16T12:15:11.152Z,3.90
2023-02-16T12:16:11.348Z,3.60
2023-02-16T12:17:15.703Z,3.70
2023-02-16T12:18:11.018Z,3.60
2023-02-16T12:19:11.048Z,3.90
2023-02-16T12:20:11.159Z,4.00
2023-02-16T12:21:11.574Z,3.70
2023-02-16T12:22:10.965Z,3.90
2023-02-16T12:23:11.041Z,3.80
2023-02-16T12:24:13.546Z,4.30
2023-02-16T12:25:10.939Z,4.20
2023-02-16T12:26:10.994Z,3.50
2023-02-16T12:27:11.593Z,3.60
2023-02-16T12:28:13.301Z,3.70
2023-02-16T12:29:10.887Z,3.30
2023-02-16T12:30:11.011Z,3.90
2023-02-16T12:31:11.103Z,3.40
2023-02-16T12:32:10.977Z,3.60
2023-02-16T12:33:10.839Z,3.60
2023-02-16T12:34:10.839Z,3.70
2023-02-16T12:35:10.861Z,3.40
2023-02-16T12:36:10.848Z,3.40
2023-02-16T12:37:10.853Z,3.10
2023-02-16T12:38:10.846Z,2.30
2023-02-16T12:39:10.840Z,1.60
2023-02-16T12:40:10.989Z,1.10
2023-02-16T12:41:10.779Z,0.90
2023-02-16T12:42:10.772Z,0.60
2023-02-16T12:43:10.779Z,0.60
2023-02-16T12:44:10.759Z,0.50
2023-02-16T12:45:10.716Z,0.60
2023-02-16T12:46:10.796Z,0.60
2023-02-16T12:47:10.812Z,0.50
2023-02-16T12:48:10.760Z,0.60
2023-02-16T12:49:10.772Z,0.50
2023-02-16T12:50:10.741Z,0.60
2023-02-16T12:51:10.652Z,0.60
2023-02-16T12:52:10.644Z,0.50
2023-02-16T12:53:10.656Z,0.40
2023-02-16T12:54:10.734Z,0.40
2023-02-16T12:55:10.630Z,0.30
2023-02-16T12:56:10.623Z,0.40
2023-02-16T12:57:10.780Z,0.40
2023-02-16T12:58:10.656Z,0.40
2023-02-16T12:59:10.623Z,0.30
2023-02-16T13:00:10.808Z,0.30
2023-02-16T13:01:10.654Z,0.20
2023-02-16T13:02:10.604Z,0.10
2023-02-16T13:03:10.662Z,0.10
2023-02-16T13:04:10.521Z,0.10
2023-02-16T13:05:10.536Z,0.00
2023-02-16T13:06:10.601Z,0.00
2023-02-16T13:07:10.556Z,0.00
2023-02-16T13:08:10.497Z,0.00
2023-02-16T13:09:10.499Z,0.00
2023-02-16T13:10:10.538Z,0.00
2023-02-16T13:11:10.565Z,0.00
2023-02-16T13:12:10.580Z,0.00
2023-02-16T13:13:10.469Z,0.00
2023-02-16T13:14:10.491Z,0.00
2023-02-16T13:15:10.488Z,0.00
2023-02-16T13:16:20.573Z,0.00
2023-02-16T13:17:11.438Z,0.00
2023-02-16T13:18:10.422Z,0.00
2023-02-16T13:19:10.421Z,0.00